Eden, Vermont
Current Conditions -  °F | °C
As of 5:55 AM on Sunday 23 Nov 2014 (Local Time) from KEFK Reporting Station
Drizzle Drizzle  
Wind Chill: 33°   Ceiling: 2000
Heat Index: 37°   Visibility: 7mi
Dew Point: 35°   Wind: 5mph
Humidity: 95%   Direction: 210°SSW
Pressure: 29.98"   Gusts: NA
Location:  44.71°N, 72.55°W
Report Text: KEFK 231055Z AUTO 21004KT 7SM -DZ OVC020 03/02 A2998 RMK AO2 T00250017
Loading
Personal Weather Stations






























Interactive Weather Map New forecast layout! Learn more

10-Day Weather Forecast

Advertisements
Track Severe Weather on mobile